Time;durP1;ratioP1;P1;durP2;ratioP2;P2;SDS_P1;SDS_P2;PMS_P1;PMS_P2;Temp;Humidity;BMP_temperature;BMP_pressure;BME280_temperature;BME280_humidity;BME280_pressure;Samples;Min_cycle;Max_cycle;Signal;HPM_P1;HPM_P2
2020/12/02 00:02:19;388231.00;1.29;669.57;0.00;0.00;0.62;;;;;8.80;1.00;;;;;;2263692;61;1992;-86
2020/12/02 00:04:46;391817.00;1.31;675.74;0.00;0.00;0.62;;;;;9.20;1.00;;;;;;2263745;61;1052;-87
2020/12/02 00:07:13;479161.00;1.60;825.95;0.00;0.00;0.62;;;;;8.90;1.00;;;;;;2263635;61;1462;-87
2020/12/02 00:09:40;353222.00;1.18;609.40;0.00;0.00;0.62;;;;;8.80;1.00;;;;;;2263678;61;1131;-86
2020/12/02 00:12:06;381523.00;1.27;658.04;0.00;0.00;0.62;;;;;9.10;1.00;;;;;;2263647;61;1680;-86
2020/12/02 00:14:33;369338.00;1.23;637.10;0.00;0.00;0.62;;;;;9.30;1.00;;;;;;2263698;61;1127;-86
2020/12/02 00:17:00;372734.00;1.24;642.94;0.00;0.00;0.62;;;;;9.20;1.00;;;;;;2265597;61;1436;-86
2020/12/02 00:19:27;360372.00;1.20;621.69;0.00;0.00;0.62;;;;;8.80;1.00;;;;;;2272888;61;1135;-87
2020/12/02 00:22:08;660904.00;2.20;1139.51;19119.00;0.06;33.74;;;;;8.60;1.00;;;;;;2272795;61;2016;-86
2020/12/02 00:24:34;362742.00;1.21;625.76;0.00;0.00;0.62;;;;;8.70;1.00;;;;;;2272900;61;915;-86
2020/12/02 00:27:05;391377.00;1.30;674.98;0.00;0.00;0.62;;;;;8.70;1.00;;;;;;2272810;61;1294;-86
2020/12/02 00:29:31;479581.00;1.60;826.68;0.00;0.00;0.62;;;;;8.40;1.00;;;;;;2272896;61;1048;-87
2020/12/02 00:31:58;425372.00;1.42;733.43;0.00;0.00;0.62;;;;;7.90;1.00;;;;;;2272850;61;1631;-88
2020/12/02 00:34:25;459606.00;1.53;792.31;0.00;0.00;0.62;;;;;7.80;1.00;;;;;;2272864;61;1033;-86
2020/12/02 00:36:52;408934.00;1.36;705.16;0.00;0.00;0.62;;;;;7.90;1.00;;;;;;2272781;61;1320;-86
2020/12/02 00:39:18;478233.00;1.59;824.36;0.00;0.00;0.62;;;;;7.70;1.00;;;;;;2272763;61;1133;-87
2020/12/02 00:41:47;478648.00;1.60;825.07;0.00;0.00;0.62;;;;;7.40;1.00;;;;;;2272773;61;2000;-87
2020/12/02 00:44:14;586965.00;1.96;1011.72;24515.00;0.08;43.09;;;;;7.60;1.00;;;;;;2272777;61;1118;-87
2020/12/02 00:46:42;404013.00;1.35;696.70;0.00;0.00;0.62;;;;;7.90;1.00;;;;;;2272764;61;1389;-87
2020/12/02 00:49:09;444194.00;1.48;765.80;0.00;0.00;0.62;;;;;8.10;1.00;;;;;;2272818;61;1017;-88
2020/12/02 00:51:37;374846.00;1.25;646.57;0.00;0.00;0.62;;;;;8.00;1.00;;;;;;2272800;61;1086;-87
2020/12/02 00:54:04;629655.00;2.10;1085.45;0.00;0.00;0.62;;;;;8.20;1.00;;;;;;2272800;61;1024;-86
2020/12/02 00:56:32;406999.00;1.36;701.84;0.00;0.00;0.62;;;;;8.40;1.00;;;;;;2272772;61;1394;-88
2020/12/02 00:59:06;345279.00;1.15;595.75;0.00;0.00;0.62;;;;;8.90;1.00;;;;;;2272764;61;1043;-87
2020/12/02 01:01:39;498835.00;1.66;859.82;0.00;0.00;0.62;;;;;9.20;1.00;;;;;;2272737;61;1923;-87
2020/12/02 01:04:14;437820.00;1.46;754.83;0.00;0.00;0.62;;;;;9.50;1.00;;;;;;2272718;61;1683;-88
2020/12/02 01:06:42;309493.00;1.03;534.24;0.00;0.00;0.62;;;;;9.60;1.00;;;;;;2272670;61;1605;-87
2020/12/02 01:09:09;489941.00;1.63;844.51;0.00;0.00;0.62;;;;;10.00;1.00;;;;;;2272745;61;1123;-87
2020/12/02 01:11:37;405579.00;1.35;699.40;0.00;0.00;0.62;;;;;10.10;1.00;;;;;;2272725;61;1114;-87
2020/12/02 01:14:08;495587.00;1.65;854.23;42543.00;0.14;74.29;;;;;10.10;1.00;;;;;;2272745;61;1021;-86
2020/12/02 01:16:37;514480.00;1.71;886.76;0.00;0.00;0.62;;;;;9.40;1.00;;;;;;2272690;61;1464;-86
2020/12/02 01:19:07;459720.00;1.53;792.50;0.00;0.00;0.62;;;;;8.30;1.00;;;;;;2272707;61;1151;-87
2020/12/02 01:21:38;428177.00;1.43;738.25;0.00;0.00;0.62;;;;;7.60;1.00;;;;;;2272672;61;1915;-86
2020/12/02 01:24:11;477072.00;1.59;822.36;0.00;0.00;0.62;;;;;7.00;1.00;;;;;;2272706;61;914;-86
2020/12/02 01:26:42;479447.00;1.60;826.45;0.00;0.00;0.62;;;;;6.80;1.00;;;;;;2272623;61;1470;-87
2020/12/02 01:29:20;574061.00;1.91;989.45;0.00;0.00;0.62;;;;;6.80;1.00;;;;;;2272538;61;1100;-88
2020/12/02 01:31:49;643605.00;2.15;1109.57;0.00;0.00;0.62;;;;;6.30;1.00;;;;;;2272647;61;1078;-88
2020/12/02 01:34:16;484239.00;1.61;834.69;0.00;0.00;0.62;;;;;6.30;1.00;;;;;;2272630;61;1026;-87
2020/12/02 01:37:18;591776.00;1.97;1020.02;0.00;0.00;0.62;;;;;6.50;1.00;;;;;;2272594;61;1265;-87
2020/12/02 01:39:53;152563568.00;508.55;143952688.00;0.00;0.00;0.62;;;;;6.30;1.00;;;;;;2272560;61;1058;-85
2020/12/02 01:42:20;611596.00;2.04;1054.25;0.00;0.00;0.62;;;;;5.70;1.00;;;;;;2272561;61;1913;-84
2020/12/02 01:44:47;587149.00;1.96;1012.04;0.00;0.00;0.62;;;;;5.50;1.00;;;;;;2272577;61;946;-85
2020/12/02 01:47:26;598447.00;1.99;1031.54;0.00;0.00;0.62;;;;;5.50;1.00;;;;;;2272508;61;1577;-85
2020/12/02 01:50:06;723685.00;2.41;1248.34;0.00;0.00;0.62;;;;;5.40;1.00;;;;;;2272575;61;1123;-86
2020/12/02 01:52:51;689759.00;2.30;1189.48;0.00;0.00;0.62;;;;;5.50;1.00;;;;;;2272555;61;1079;-86
2020/12/02 01:55:28;615853.00;2.05;1061.60;0.00;0.00;0.62;;;;;5.40;1.00;;;;;;2272555;61;1049;-85
2020/12/02 01:58:00;695233.00;2.32;1198.97;0.00;0.00;0.62;;;;;5.20;1.00;;;;;;2272503;61;1722;-85
2020/12/02 02:00:30;539066.00;1.80;929.11;0.00;0.00;0.62;;;;;5.20;1.60;;;;;;2272576;61;1008;-85
2020/12/02 02:03:05;1051294.00;3.50;1823.54;39346.00;0.13;68.76;;;;;5.40;1.90;;;;;;2272554;61;1914;-87
2020/12/02 02:05:42;720728.00;2.40;1243.20;0.00;0.00;0.62;;;;;5.50;1.00;;;;;;2272531;61;1106;-86
2020/12/02 02:08:08;684920.00;2.28;1181.10;0.00;0.00;0.62;;;;;5.30;1.00;;;;;;2272545;61;1111;-85
2020/12/02 02:10:38;553770.00;1.85;954.46;0.00;0.00;0.62;;;;;5.30;1.70;;;;;;2272515;61;978;-85
2020/12/02 02:13:34;595521.00;1.99;1026.49;0.00;0.00;0.62;;;;;5.50;1.00;;;;;;2272538;61;1054;-85
2020/12/02 02:16:05;726277.00;2.42;1252.84;0.00;0.00;0.62;;;;;5.50;1.30;;;;;;2272476;61;1460;-86
2020/12/02 02:18:32;509234.00;1.70;877.72;0.00;0.00;0.62;;;;;6.00;1.00;;;;;;2272498;61;1119;-86
2020/12/02 02:21:01;528843.00;1.76;911.50;0.00;0.00;0.62;;;;;6.70;1.00;;;;;;2272444;61;1737;-85
2020/12/02 02:23:29;571993.00;1.91;985.88;0.00;0.00;0.62;;;;;6.90;1.00;;;;;;2272461;61;1927;-86
2020/12/02 02:26:10;582540.00;1.94;1004.08;0.00;0.00;0.62;;;;;6.50;1.00;;;;;;2272453;61;1385;-86
2020/12/02 02:28:41;589047.00;1.96;1015.31;0.00;0.00;0.62;;;;;6.30;1.00;;;;;;2272467;61;1111;-85
2020/12/02 02:31:12;586752.00;1.96;1011.35;0.00;0.00;0.62;;;;;6.30;1.00;;;;;;2272459;61;1103;-85
2020/12/02 02:33:41;552266.00;1.84;951.87;0.00;0.00;0.62;;;;;6.00;1.00;;;;;;2272456;61;1072;-85
2020/12/02 02:36:11;465683.00;1.55;802.76;0.00;0.00;0.62;;;;;5.40;1.00;;;;;;2272433;61;1297;-85
2020/12/02 02:38:38;541757.00;1.81;933.75;0.00;0.00;0.62;;;;;4.90;2.60;;;;;;2261909;61;959;-85
2020/12/02 02:41:05;117618736.00;392.06;65911352.00;0.00;0.00;0.62;;;;;5.00;3.70;;;;;;2272266;61;1600;-86
2020/12/02 02:43:32;505979.00;1.69;872.12;0.00;0.00;0.62;;;;;5.40;2.20;;;;;;2272391;61;2056;-85
2020/12/02 02:45:58;681494.00;2.27;1175.16;0.00;0.00;0.62;;;;;5.50;1.50;;;;;;2272350;61;1408;-85
2020/12/02 02:48:25;646446.00;2.15;1114.49;0.00;0.00;0.62;;;;;5.40;2.60;;;;;;2272398;61;1062;-86
2020/12/02 02:50:51;606261.00;2.02;1045.03;0.00;0.00;0.62;;;;;5.30;2.40;;;;;;2272349;61;1556;-85
2020/12/02 02:53:20;480781.00;1.60;828.74;0.00;0.00;0.62;;;;;5.40;1.80;;;;;;2272321;61;1718;-85
2020/12/02 02:55:47;680235.00;2.27;1172.98;0.00;0.00;0.62;;;;;5.50;2.00;;;;;;2272392;61;1407;-85
2020/12/02 02:58:14;589393.00;1.96;1015.91;0.00;0.00;0.62;;;;;5.60;1.30;;;;;;2272370;61;1100;-85
2020/12/02 03:00:42;707425.00;2.36;1220.12;0.00;0.00;0.62;;;;;6.00;1.00;;;;;;2272386;61;1056;-85
2020/12/02 03:03:11;599654.00;2.00;1033.62;0.00;0.00;0.62;;;;;5.90;1.00;;;;;;2272358;61;1915;-86
2020/12/02 03:05:38;616170.00;2.05;1062.15;0.00;0.00;0.62;;;;;5.60;1.00;;;;;;2272346;61;1137;-86
2020/12/02 03:08:09;550679.00;1.84;949.13;0.00;0.00;0.62;;;;;5.40;2.20;;;;;;2272358;61;972;-85
2020/12/02 03:10:39;557615.00;1.86;961.09;0.00;0.00;0.62;;;;;5.50;1.80;;;;;;2272331;61;1177;-86
2020/12/02 03:13:24;660974.00;2.20;1139.63;0.00;0.00;0.62;;;;;5.80;1.00;;;;;;2272374;61;954;-86
2020/12/02 03:15:51;442826.00;1.48;763.44;0.00;0.00;0.62;;;;;6.10;1.00;;;;;;2272328;61;1376;-86
2020/12/02 03:18:18;582236.00;1.94;1003.56;0.00;0.00;0.62;;;;;6.30;1.00;;;;;;2272311;61;1060;-87
2020/12/02 03:20:51;592268.00;1.97;1020.87;0.00;0.00;0.62;;;;;5.90;1.00;;;;;;2272339;61;1049;-86
2020/12/02 03:23:19;592227.00;1.97;1020.80;0.00;0.00;0.62;;;;;5.60;1.00;;;;;;2272296;61;1911;-85
2020/12/02 03:25:46;659453.00;2.20;1136.99;0.00;0.00;0.62;;;;;5.30;1.70;;;;;;2272256;61;1410;-84
2020/12/02 03:28:13;547289.00;1.82;943.29;0.00;0.00;0.62;;;;;5.20;2.10;;;;;;2272318;61;1069;-86
2020/12/02 03:30:42;610889.00;2.04;1053.03;0.00;0.00;0.62;;;;;5.00;3.80;;;;;;2272291;61;1076;-85
2020/12/02 03:33:11;532248.00;1.77;917.37;0.00;0.00;0.62;;;;;4.90;3.20;;;;;;2272258;61;1088;-85
2020/12/02 03:35:38;660577.00;2.20;1138.94;0.00;0.00;0.62;;;;;4.80;4.80;;;;;;2272260;61;1123;-85
2020/12/02 03:38:05;546036.00;1.82;941.13;0.00;0.00;0.62;;;;;5.30;4.80;;;;;;2272311;61;1057;-85
2020/12/02 03:40:32;600575.00;2.00;1035.21;0.00;0.00;0.62;;;;;5.40;3.20;;;;;;2272220;61;1100;-86
2020/12/02 03:42:58;602296.00;2.01;1038.18;0.00;0.00;0.62;;;;;5.50;2.80;;;;;;2272186;61;2127;-86
2020/12/02 03:45:25;561856.00;1.87;968.40;0.00;0.00;0.62;;;;;5.30;2.60;;;;;;2272281;61;1151;-86
2020/12/02 03:47:52;552589.00;1.84;952.42;0.00;0.00;0.62;;;;;4.90;3.40;;;;;;2272172;61;1757;-86
2020/12/02 03:50:19;718419.00;2.39;1239.19;0.00;0.00;0.62;;;;;4.30;5.20;;;;;;2272236;61;1530;-85
2020/12/02 03:52:45;578266.00;1.93;996.71;0.00;0.00;0.62;;;;;4.40;5.70;;;;;;2273009;61;1138;-85
2020/12/02 03:55:11;694803.00;2.32;1198.23;0.00;0.00;0.62;;;;;4.40;5.90;;;;;;2272936;61;1072;-85
2020/12/02 03:57:38;676662.00;2.26;1166.79;0.00;0.00;0.62;;;;;4.60;6.80;;;;;;2272963;61;1383;-85
2020/12/02 04:00:08;834965.00;2.78;1442.17;0.00;0.00;0.62;;;;;4.70;5.30;;;;;;2272756;61;1107;-85
2020/12/02 04:02:35;707013.00;2.36;1219.40;0.00;0.00;0.62;;;;;4.50;5.40;;;;;;2264298;61;1996;-85
2020/12/02 04:05:02;539476.00;1.80;929.82;0.00;0.00;0.62;;;;;4.40;6.40;;;;;;2264382;61;1074;-86
2020/12/02 04:07:29;659186.00;2.20;1136.53;0.00;0.00;0.62;;;;;4.40;5.90;;;;;;2264385;61;1424;-85
2020/12/02 04:09:55;539757.00;1.80;930.30;0.00;0.00;0.62;;;;;4.30;6.20;;;;;;2264404;61;1097;-86
2020/12/02 04:12:21;443709.00;1.48;764.96;0.00;0.00;0.62;;;;;4.30;6.90;;;;;;2264381;61;1054;-86
2020/12/02 04:14:48;500613.00;1.67;862.88;0.00;0.00;0.62;;;;;4.60;5.50;;;;;;2264431;61;1051;-86
2020/12/02 04:17:14;426665.00;1.42;735.65;0.00;0.00;0.62;;;;;4.70;5.10;;;;;;2264329;61;1411;-86
2020/12/02 04:19:41;117112192.00;390.37;65062692.00;0.00;0.00;0.62;;;;;4.40;5.70;;;;;;2265270;61;1223;-85
2020/12/02 04:22:08;651561.00;2.17;1123.34;0.00;0.00;0.62;;;;;4.50;6.40;;;;;;2272804;61;1993;-84
2020/12/02 04:24:35;450157.00;1.50;776.05;0.00;0.00;0.62;;;;;4.70;5.10;;;;;;2272961;61;1112;-84
2020/12/02 04:27:01;513343.00;1.71;884.80;0.00;0.00;0.62;;;;;4.90;6.30;;;;;;2272891;61;1410;-84
2020/12/02 04:29:28;526901.00;1.76;908.15;0.00;0.00;0.62;;;;;4.90;3.80;;;;;;2272896;61;1040;-86
2020/12/02 04:31:54;403427.00;1.34;695.70;0.00;0.00;0.62;;;;;5.00;4.20;;;;;;2272855;61;1133;-85
2020/12/02 04:34:21;666648.00;2.22;1149.45;0.00;0.00;0.62;;;;;4.90;3.70;;;;;;2272941;61;1051;-86
2020/12/02 04:36:49;574466.00;1.91;990.15;0.00;0.00;0.62;;;;;5.00;3.80;;;;;;2272815;61;1438;-85
2020/12/02 04:39:17;590482.00;1.97;1017.79;0.00;0.00;0.62;;;;;4.90;4.20;;;;;;2272782;61;1019;-85
2020/12/02 04:41:44;673459.00;2.24;1161.24;0.00;0.00;0.62;;;;;4.80;4.00;;;;;;2272885;61;2001;-86
2020/12/02 04:44:13;460202.00;1.53;793.33;0.00;0.00;0.62;;;;;4.60;5.20;;;;;;2272864;61;921;-85
2020/12/02 04:46:40;433037.00;1.44;746.61;0.00;0.00;0.62;;;;;4.80;4.40;;;;;;2272859;61;1313;-86
2020/12/02 04:49:14;650093.00;2.17;1120.80;0.00;0.00;0.62;;;;;4.90;3.60;;;;;;2272875;61;1120;-85
2020/12/02 04:51:42;424158.00;1.41;731.34;0.00;0.00;0.62;;;;;4.80;4.10;;;;;;2272808;61;1099;-83
2020/12/02 04:54:10;494841.00;1.65;852.94;0.00;0.00;0.62;;;;;4.60;4.60;;;;;;2272858;61;1044;-84
2020/12/02 04:56:42;458262.00;1.53;789.99;0.00;0.00;0.62;;;;;4.40;6.20;;;;;;2272794;61;1427;-84
2020/12/02 04:59:09;464599.00;1.55;800.90;0.00;0.00;0.62;;;;;4.60;6.00;;;;;;2272833;61;1024;-85
2020/12/02 05:01:48;567977.00;1.89;978.96;0.00;0.00;0.62;;;;;4.60;5.20;;;;;;2272771;61;1010;-84
2020/12/02 05:04:17;486047.00;1.62;837.80;0.00;0.00;0.62;;;;;4.40;5.40;;;;;;2272741;61;1047;-84
2020/12/02 05:06:46;515136.00;1.72;887.89;0.00;0.00;0.62;;;;;4.20;6.90;;;;;;2272805;61;1408;-86
2020/12/02 05:09:21;505675.00;1.69;871.59;0.00;0.00;0.62;;;;;4.50;7.10;;;;;;2272738;61;1057;-85
2020/12/02 05:12:00;591638.00;1.97;1019.78;0.00;0.00;0.62;;;;;4.60;5.80;;;;;;2272764;61;1615;-84
2020/12/02 05:14:33;451795.00;1.51;778.87;0.00;0.00;0.62;;;;;4.60;5.20;;;;;;2272764;61;1001;-85
2020/12/02 05:17:18;453153.00;1.51;781.21;0.00;0.00;0.62;;;;;4.90;5.00;;;;;;2272721;61;1382;-84
2020/12/02 05:19:46;522524.00;1.74;900.61;0.00;0.00;0.62;;;;;4.80;4.40;;;;;;2272749;61;1147;-84
2020/12/02 05:22:15;525144.00;1.75;905.13;0.00;0.00;0.62;;;;;4.70;4.40;;;;;;2272704;61;1998;-85
2020/12/02 05:24:44;576361.00;1.92;993.42;0.00;0.00;0.62;;;;;4.70;4.40;;;;;;2272660;61;1128;-87
2020/12/02 05:27:17;469926.00;1.57;810.06;0.00;0.00;0.62;;;;;4.70;5.00;;;;;;2272590;61;1438;-86
2020/12/02 05:29:50;123221520.00;410.74;75795960.00;0.00;0.00;0.62;;;;;4.70;5.70;;;;;;2272713;61;1159;-86
2020/12/02 05:32:20;812107.00;2.71;1402.25;0.00;0.00;0.62;;;;;4.70;4.90;;;;;;2272681;61;1127;-86
2020/12/02 05:34:47;557778.00;1.86;961.37;0.00;0.00;0.62;;;;;4.50;5.00;;;;;;2272683;61;1040;-86
2020/12/02 05:37:24;529299.00;1.76;912.28;0.00;0.00;0.62;;;;;4.10;6.70;;;;;;2272622;61;1406;-87
2020/12/02 05:39:55;458875.00;1.53;791.05;0.00;0.00;0.62;;;;;4.60;6.60;;;;;;2272564;61;1047;-87
2020/12/02 05:42:31;439567.00;1.47;757.84;0.00;0.00;0.62;;;;;5.00;5.70;;;;;;2272577;61;1926;-86
2020/12/02 05:45:05;592317.00;1.97;1020.96;0.00;0.00;0.62;;;;;4.90;4.50;;;;;;2272556;61;1731;-87
2020/12/02 05:47:31;560132.00;1.87;965.43;0.00;0.00;0.62;;;;;5.10;5.00;;;;;;2272552;61;1384;-87
2020/12/02 05:50:00;700518.00;2.34;1208.14;0.00;0.00;0.62;;;;;5.60;2.90;;;;;;2272599;61;926;-86
2020/12/02 05:52:33;648705.00;2.16;1118.40;0.00;0.00;0.62;;;;;6.00;1.00;;;;;;2272530;61;1025;-86
2020/12/02 05:55:04;440593.00;1.47;759.60;0.00;0.00;0.62;;;;;6.40;1.00;;;;;;2272549;61;1095;-87
2020/12/02 05:57:35;383242.00;1.28;661.00;0.00;0.00;0.62;;;;;6.70;1.20;;;;;;2272559;61;1351;-87
2020/12/02 06:00:03;503042.00;1.68;867.06;0.00;0.00;0.62;;;;;7.30;1.00;;;;;;2272582;61;942;-86
2020/12/02 06:02:30;411140.00;1.37;708.96;0.00;0.00;0.62;;;;;7.90;1.00;;;;;;2272551;61;1910;-87
2020/12/02 06:04:56;339122.00;1.13;585.16;0.00;0.00;0.62;;;;;8.50;1.00;;;;;;2272546;61;1003;-87
2020/12/02 06:07:23;266028.00;0.89;459.51;0.00;0.00;0.62;;;;;9.10;1.00;;;;;;2272517;61;1297;-87
2020/12/02 06:09:52;324957.00;1.08;560.82;0.00;0.00;0.62;;;;;9.40;1.00;;;;;;2272504;61;1061;-87
2020/12/02 06:12:21;324998.00;1.08;560.89;0.00;0.00;0.62;;;;;9.80;1.00;;;;;;2272443;61;996;-88
2020/12/02 06:14:50;343965.00;1.15;593.49;0.00;0.00;0.62;;;;;10.00;1.00;;;;;;2272418;61;1024;-88
2020/12/02 06:17:27;233135.00;0.78;402.94;0.00;0.00;0.62;;;;;10.30;1.00;;;;;;2272434;61;1371;-87
2020/12/02 06:19:54;299716.00;1.00;517.43;0.00;0.00;0.62;;;;;10.50;1.00;;;;;;2272472;61;1124;-88
2020/12/02 06:22:48;377169.00;1.26;650.56;0.00;0.00;0.62;;;;;10.70;1.00;;;;;;2272438;61;1916;-87
2020/12/02 06:25:46;507490.00;1.69;874.72;0.00;0.00;0.62;;;;;10.40;1.00;;;;;;2272424;61;1135;-86
2020/12/02 06:28:14;415311.00;1.38;716.13;0.00;0.00;0.62;;;;;10.50;1.00;;;;;;2272342;61;1577;-87
2020/12/02 06:30:51;425574.00;1.42;733.77;0.00;0.00;0.62;;;;;10.10;1.00;;;;;;2272356;61;1711;-88
2020/12/02 06:33:28;301993.00;1.01;521.35;0.00;0.00;0.62;;;;;10.00;1.00;;;;;;2272484;61;1025;-88
2020/12/02 06:36:10;413524.00;1.38;713.06;0.00;0.00;0.62;;;;;10.00;1.00;;;;;;2272342;61;1536;-87
2020/12/02 06:38:37;427976.00;1.43;737.91;0.00;0.00;0.62;;;;;9.70;1.00;;;;;;2272441;61;1064;-87
2020/12/02 06:41:23;362965.00;1.21;626.14;0.00;0.00;0.62;;;;;9.30;1.00;;;;;;2272376;61;1030;-87
2020/12/02 06:43:58;504024.00;1.68;868.75;0.00;0.00;0.62;;;;;8.70;1.00;;;;;;2272237;61;2018;-88
2020/12/02 06:47:07;487060.00;1.62;839.55;0.00;0.00;0.62;;;;;8.40;1.00;;;;;;2272350;61;1475;-87
2020/12/02 06:49:40;502127.00;1.67;865.49;0.00;0.00;0.62;;;;;8.20;1.00;;;;;;2270511;61;1479;-88
2020/12/02 06:52:09;598464.00;1.99;1031.57;0.00;0.00;0.62;;;;;7.80;1.00;;;;;;2272407;61;1336;-88
2020/12/02 06:54:38;343343.00;1.14;592.42;0.00;0.00;0.62;;;;;7.90;1.00;;;;;;2272396;61;1068;-88
2020/12/02 06:57:21;498873.00;1.66;859.88;0.00;0.00;0.62;;;;;7.40;1.00;;;;;;2272364;61;1355;-88
2020/12/02 06:59:49;437102.00;1.46;753.60;0.00;0.00;0.62;;;;;7.30;1.00;;;;;;2272406;61;1191;-89
2020/12/02 07:02:29;409625.00;1.37;706.35;0.00;0.00;0.62;;;;;7.30;1.00;;;;;;2272311;61;2004;-89
2020/12/02 07:04:59;283250.00;0.94;489.13;0.00;0.00;0.62;;;;;8.10;1.00;;;;;;2272358;61;1062;-87
2020/12/02 07:07:26;330325.00;1.10;570.04;0.00;0.00;0.62;;;;;8.70;1.00;;;;;;2272191;61;1478;-87
2020/12/02 07:09:52;542848.00;1.81;935.63;0.00;0.00;0.62;;;;;9.00;1.00;;;;;;2272283;61;1115;-87
2020/12/02 07:12:23;435518.00;1.45;750.87;0.00;0.00;0.62;;;;;8.90;1.00;;;;;;2272358;61;1063;-87
2020/12/02 07:14:50;325345.00;1.08;561.49;0.00;0.00;0.62;;;;;8.60;1.00;;;;;;2272361;61;1096;-88
2020/12/02 07:17:22;421477.00;1.40;726.73;0.00;0.00;0.62;;;;;8.30;1.00;;;;;;2272284;61;1349;-89
2020/12/02 07:19:49;331157.00;1.10;571.47;0.00;0.00;0.62;;;;;7.90;1.00;;;;;;2272317;61;1120;-87
2020/12/02 07:22:21;509243.00;1.70;877.74;0.00;0.00;0.62;;;;;7.80;1.00;;;;;;2271700;61;1990;-88
2020/12/02 07:24:50;439376.00;1.46;757.51;0.00;0.00;0.62;;;;;7.90;1.00;;;;;;2272227;61;1127;-88
2020/12/02 07:27:18;421957.00;1.41;727.56;0.00;0.00;0.62;;;;;8.10;1.00;;;;;;2272145;61;1641;-88
2020/12/02 07:29:45;547936.00;1.83;944.40;0.00;0.00;0.62;;;;;8.10;1.00;;;;;;2272222;61;1489;-87
2020/12/02 07:32:15;522561.00;1.74;900.68;0.00;0.00;0.62;;;;;7.90;1.00;;;;;;2272216;61;1458;-88
2020/12/02 07:34:42;447966.00;1.49;772.28;0.00;0.00;0.62;;;;;8.30;1.00;;;;;;2272233;61;1779;-88
2020/12/02 07:37:13;407835.00;1.36;703.27;0.00;0.00;0.62;;;;;7.90;1.00;;;;;;2272234;61;1371;-88
2020/12/02 07:39:47;498941.00;1.66;860.00;0.00;0.00;0.62;;;;;8.00;1.00;;;;;;2272217;61;1041;-88
2020/12/02 07:42:19;397549.00;1.33;685.59;0.00;0.00;0.62;;;;;8.10;1.00;;;;;;2272267;61;1990;-88
2020/12/02 07:45:03;462344.00;1.54;797.02;0.00;0.00;0.62;;;;;8.30;1.00;;;;;;2272251;61;1048;-89
2020/12/02 07:47:30;378642.00;1.26;653.09;0.00;0.00;0.62;;;;;7.80;1.00;;;;;;2272177;61;1429;-89
2020/12/02 07:50:04;434372.00;1.45;748.90;0.00;0.00;0.62;;;;;7.60;1.00;;;;;;2265173;61;1057;-89
2020/12/02 07:52:37;125324928.00;417.75;79747968.00;0.00;0.00;0.62;;;;;7.30;1.00;;;;;;2272174;61;1045;-89
2020/12/02 07:55:07;895284.00;2.98;1547.84;0.00;0.00;0.62;;;;;6.90;1.00;;;;;;2272216;61;1459;-88
2020/12/02 07:57:36;737318.00;2.46;1272.01;0.00;0.00;0.62;;;;;6.90;1.00;;;;;;2272211;61;1301;-88
2020/12/02 08:00:17;481942.00;1.61;830.74;0.00;0.00;0.62;;;;;7.00;1.00;;;;;;2272196;61;1026;-88
2020/12/02 08:02:45;456222.00;1.52;786.49;0.00;0.00;0.62;;;;;7.80;1.00;;;;;;2265041;61;1918;-89
2020/12/02 08:05:34;405707.00;1.35;699.62;0.00;0.00;0.62;;;;;7.80;1.00;;;;;;2272151;61;1096;-90
2020/12/02 08:08:00;499124.00;1.66;860.32;0.00;0.00;0.62;;;;;8.40;1.00;;;;;;2272099;61;1625;-89
2020/12/02 08:10:31;447602.00;1.49;771.66;0.00;0.00;0.62;;;;;8.70;1.00;;;;;;2272170;61;1043;-89
2020/12/02 08:13:01;452860.00;1.51;780.70;0.00;0.00;0.62;;;;;8.50;1.00;;;;;;2272163;61;979;-88
2020/12/02 08:15:28;429281.00;1.43;740.15;0.00;0.00;0.62;;;;;8.70;1.00;;;;;;2272152;61;1147;-88
2020/12/02 08:18:13;534745.00;1.78;921.67;0.00;0.00;0.62;;;;;7.30;1.00;;;;;;2263445;61;1203;-88
2020/12/02 08:20:41;358288.00;1.19;618.11;0.00;0.00;0.62;;;;;6.90;1.00;;;;;;2263514;61;1161;-88
2020/12/02 08:23:11;587910.00;1.96;1013.35;0.00;0.00;0.62;;;;;6.20;1.00;;;;;;2263485;61;1989;-88
2020/12/02 08:25:53;353509.00;1.18;609.89;0.00;0.00;0.62;;;;;6.70;1.00;;;;;;2263573;61;1170;-87
2020/12/02 08:28:25;411844.00;1.37;710.17;0.00;0.00;0.62;;;;;7.20;1.00;;;;;;2263665;61;941;-89
2020/12/02 08:31:06;391379.00;1.30;674.99;0.00;0.00;0.62;;;;;7.10;1.00;;;;;;2263577;61;1636;-87
2020/12/02 08:33:33;373857.00;1.25;644.87;0.00;0.00;0.62;;;;;7.10;1.00;;;;;;2263578;61;1131;-89
2020/12/02 08:36:06;600331.00;2.00;1034.79;0.00;0.00;0.62;;;;;7.80;1.00;;;;;;2268101;61;1408;-89
2020/12/02 08:38:37;376742.00;1.26;649.83;0.00;0.00;0.62;;;;;8.30;1.00;;;;;;2272768;61;1083;-89
2020/12/02 08:41:14;322459.00;1.07;556.52;0.00;0.00;0.62;;;;;8.70;1.00;;;;;;2272002;61;959;-89
2020/12/02 08:43:47;258461.00;0.86;446.50;0.00;0.00;0.62;;;;;9.10;1.00;;;;;;2272213;61;1994;-88
2020/12/02 08:46:31;411781.00;1.37;710.06;0.00;0.00;0.62;;;;;9.60;1.00;;;;;;2268829;61;1422;-89
2020/12/02 08:49:00;323475.00;1.08;558.27;0.00;0.00;0.62;;;;;9.90;1.00;;;;;;2272296;61;1055;-90
2020/12/02 08:51:27;368474.00;1.23;635.61;0.00;0.00;0.62;;;;;9.50;1.00;;;;;;2272001;61;1085;-89
2020/12/02 08:53:55;540096.00;1.80;930.89;51024.00;0.17;88.96;;;;;9.40;1.00;;;;;;2272175;61;1538;-88
2020/12/02 08:56:31;323426.00;1.08;558.19;0.00;0.00;0.62;;;;;9.20;1.00;;;;;;2272230;61;1289;-88
2020/12/02 08:58:57;364014.00;1.21;627.95;0.00;0.00;0.62;;;;;9.00;1.00;;;;;;2265557;61;932;-88
2020/12/02 09:01:24;327190.00;1.09;564.66;0.00;0.00;0.62;;;;;8.70;1.00;;;;;;2265660;61;1033;-88
2020/12/02 09:03:51;304649.00;1.02;525.91;0.00;0.00;0.62;;;;;8.80;1.00;;;;;;2272674;61;1988;-88
2020/12/02 09:06:21;363013.00;1.21;626.23;0.00;0.00;0.62;;;;;9.00;1.00;;;;;;2265625;61;1411;-88
2020/12/02 09:08:49;343692.00;1.15;593.02;0.00;0.00;0.62;;;;;9.40;1.00;;;;;;2265605;61;990;-89
2020/12/02 09:11:19;316102.00;1.05;545.60;0.00;0.00;0.62;;;;;10.00;1.00;;;;;;2265364;61;933;-87
2020/12/02 09:13:47;291730.00;0.97;503.70;0.00;0.00;0.62;;;;;10.10;1.00;;;;;;2272672;61;1044;-87
2020/12/02 09:16:21;225397.00;0.75;389.63;0.00;0.00;0.62;;;;;10.10;1.00;;;;;;2272648;61;1350;-86
2020/12/02 09:18:47;280433.00;0.93;484.28;0.00;0.00;0.62;;;;;10.40;1.00;;;;;;2272667;61;1000;-86
2020/12/02 09:21:13;266845.00;0.89;460.92;0.00;0.00;0.62;;;;;10.60;1.00;;;;;;2272618;61;1045;-87
2020/12/02 09:23:40;373575.00;1.25;644.38;0.00;0.00;0.62;;;;;10.10;1.00;;;;;;2272626;61;1998;-87
2020/12/02 09:26:06;255958.00;0.85;442.20;0.00;0.00;0.62;;;;;9.90;1.00;;;;;;2272103;61;1687;-87
2020/12/02 09:28:33;305159.00;1.02;526.79;0.00;0.00;0.62;;;;;9.10;1.00;;;;;;2272687;61;993;-87
2020/12/02 09:31:00;407019.00;1.36;701.87;0.00;0.00;0.62;;;;;8.10;1.00;;;;;;2275560;60;967;-88
2020/12/02 09:33:27;297175.00;0.99;513.06;0.00;0.00;0.62;;;;;7.80;1.00;;;;;;2272563;61;1000;-88
2020/12/02 09:35:53;429902.00;1.43;741.22;0.00;0.00;0.62;;;;;7.80;1.00;;;;;;2272499;61;1313;-88
2020/12/02 09:38:21;465172.00;1.55;801.88;0.00;0.00;0.62;;;;;7.20;1.00;;;;;;2272520;61;988;-88
2020/12/02 09:40:48;372638.00;1.24;642.77;0.00;0.00;0.62;;;;;7.40;1.00;;;;;;2272607;61;1065;-88
2020/12/02 09:43:46;374929.00;1.25;646.71;0.00;0.00;0.62;;;;;7.10;1.00;;;;;;2272523;61;1998;-87
2020/12/02 09:46:19;393259.00;1.31;678.22;0.00;0.00;0.62;;;;;6.70;1.00;;;;;;2272284;61;1709;-88
2020/12/02 09:48:46;336037.00;1.12;579.86;0.00;0.00;0.62;;;;;6.60;1.00;;;;;;2272312;61;1075;-88
2020/12/02 09:51:20;401395.00;1.34;692.20;0.00;0.00;0.62;;;;;6.60;1.00;;;;;;2272550;61;920;-88
2020/12/02 09:53:48;439330.00;1.46;757.43;0.00;0.00;0.62;;;;;6.40;1.00;;;;;;2272450;61;1056;-87
2020/12/02 09:56:16;469215.00;1.56;808.84;0.00;0.00;0.62;;;;;6.50;1.00;;;;;;2272443;61;1406;-88
2020/12/02 09:58:43;508024.00;1.69;875.64;0.00;0.00;0.62;;;;;6.30;1.00;;;;;;2272178;61;1025;-87
2020/12/02 10:01:16;572021.00;1.91;985.93;0.00;0.00;0.62;;;;;6.30;1.00;;;;;;2272557;61;877;-88
2020/12/02 10:04:37;443401.00;1.48;764.43;0.00;0.00;0.62;;;;;6.30;1.00;;;;;;2272404;61;2010;-88
2020/12/02 10:07:36;569983.00;1.90;982.42;0.00;0.00;0.62;;;;;6.30;1.00;;;;;;2248598;61;1404;-88
2020/12/02 10:10:34;659332.00;2.20;1136.78;72182.00;0.24;125.53;;;;;6.40;1.00;;;;;;2255774;61;1107;-88
2020/12/02 10:13:26;617702.00;2.06;1064.80;86148.00;0.29;149.66;;;;;6.40;1.00;;;;;;2241434;61;1016;-88
2020/12/02 10:16:06;532052.00;1.77;917.03;0.00;0.00;0.62;;;;;6.20;1.00;;;;;;2245622;61;1329;-88
2020/12/02 10:19:07;691740.00;2.31;1192.92;92759.00;0.31;161.07;;;;;6.30;1.00;;;;;;2255544;61;1081;-87
2020/12/02 10:21:50;584990.00;1.95;1008.31;0.00;0.00;0.62;;;;;6.30;1.00;;;;;;2242173;61;975;-87